sensor_id;sensor_type;location;lat;lon;timestamp;pressure;altitude;pressure_sealevel;temperature;humidity
43804;BME280;29430;52.924;-2.388;2023-02-28T00:04:50;101098.16;;;5.11;100.00
43804;BME280;29430;52.924;-2.388;2023-02-28T00:09:44;101096.88;;;5.15;100.00
43804;BME280;29430;52.924;-2.388;2023-02-28T00:14:36;101108.88;;;5.20;100.00
43804;BME280;29430;52.924;-2.388;2023-02-28T00:19:28;101102.34;;;5.23;100.00
43804;BME280;29430;52.924;-2.388;2023-02-28T00:24:19;101104.34;;;5.21;100.00
43804;BME280;29430;52.924;-2.388;2023-02-28T00:29:11;101110.03;;;5.18;100.00
43804;BME280;29430;52.924;-2.388;2023-02-28T00:34:03;101111.31;;;5.14;100.00
43804;BME280;29430;52.924;-2.388;2023-02-28T00:38:57;101107.78;;;5.13;100.00
43804;BME280;29430;52.924;-2.388;2023-02-28T00:43:49;101104.94;;;5.15;100.00
43804;BME280;29430;52.924;-2.388;2023-02-28T00:48:41;101093.50;;;5.13;100.00
43804;BME280;29430;52.924;-2.388;2023-02-28T00:53:33;101101.56;;;5.13;100.00
43804;BME280;29430;52.924;-2.388;2023-02-28T00:58:27;101097.84;;;5.14;100.00
43804;BME280;29430;52.924;-2.388;2023-02-28T01:08:11;101106.78;;;5.14;100.00
43804;BME280;29430;52.924;-2.388;2023-02-28T01:13:03;101116.69;;;5.14;100.00
43804;BME280;29430;52.924;-2.388;2023-02-28T01:17:55;101112.72;;;5.18;100.00
43804;BME280;29430;52.924;-2.388;2023-02-28T01:22:49;101112.41;;;5.21;100.00
43804;BME280;29430;52.924;-2.388;2023-02-28T01:27:41;101115.34;;;5.28;100.00
43804;BME280;29430;52.924;-2.388;2023-02-28T01:32:33;101114.66;;;5.26;100.00
43804;BME280;29430;52.924;-2.388;2023-02-28T01:37:24;101121.56;;;5.28;100.00
43804;BME280;29430;52.924;-2.388;2023-02-28T01:42:16;101128.06;;;5.35;100.00
43804;BME280;29430;52.924;-2.388;2023-02-28T01:47:08;101113.63;;;5.36;100.00
43804;BME280;29430;52.924;-2.388;2023-02-28T01:52:00;101120.44;;;5.31;100.00
43804;BME280;29430;52.924;-2.388;2023-02-28T01:56:56;101121.91;;;5.25;100.00
43804;BME280;29430;52.924;-2.388;2023-02-28T02:01:49;101108.75;;;5.22;100.00
43804;BME280;29430;52.924;-2.388;2023-02-28T02:06:44;101100.81;;;5.20;100.00
43804;BME280;29430;52.924;-2.388;2023-02-28T02:11:39;101116.50;;;5.25;100.00
43804;BME280;29430;52.924;-2.388;2023-02-28T02:37:38;101106.72;;;4.96;100.00
43804;BME280;29430;52.924;-2.388;2023-02-28T02:42:46;101103.03;;;4.97;100.00
43804;BME280;29430;52.924;-2.388;2023-02-28T02:47:43;101104.31;;;4.93;100.00
43804;BME280;29430;52.924;-2.388;2023-02-28T02:52:48;101099.09;;;4.92;100.00
43804;BME280;29430;52.924;-2.388;2023-02-28T02:57:46;101108.28;;;4.89;100.00
43804;BME280;29430;52.924;-2.388;2023-02-28T03:02:40;101095.41;;;4.83;100.00
43804;BME280;29430;52.924;-2.388;2023-02-28T03:07:33;101104.22;;;4.75;100.00
43804;BME280;29430;52.924;-2.388;2023-02-28T03:12:40;101090.38;;;4.70;100.00
43804;BME280;29430;52.924;-2.388;2023-02-28T03:27:42;101103.66;;;4.72;100.00
43804;BME280;29430;52.924;-2.388;2023-02-28T03:32:41;101106.94;;;4.65;100.00
43804;BME280;29430;52.924;-2.388;2023-02-28T03:37:39;101097.44;;;4.61;100.00
43804;BME280;29430;52.924;-2.388;2023-02-28T03:42:35;101106.81;;;4.57;100.00
43804;BME280;29430;52.924;-2.388;2023-02-28T03:47:40;101101.88;;;4.53;100.00
43804;BME280;29430;52.924;-2.388;2023-02-28T03:52:38;101108.22;;;4.52;100.00
43804;BME280;29430;52.924;-2.388;2023-02-28T04:02:24;101103.56;;;4.44;100.00
43804;BME280;29430;52.924;-2.388;2023-02-28T04:07:16;101108.25;;;4.42;100.00
43804;BME280;29430;52.924;-2.388;2023-02-28T04:12:08;101107.94;;;4.35;100.00
43804;BME280;29430;52.924;-2.388;2023-02-28T04:17:00;101106.84;;;4.28;100.00
43804;BME280;29430;52.924;-2.388;2023-02-28T04:21:53;101103.44;;;4.26;100.00
43804;BME280;29430;52.924;-2.388;2023-02-28T04:26:47;101107.13;;;4.25;100.00
43804;BME280;29430;52.924;-2.388;2023-02-28T04:31:40;101105.56;;;4.22;100.00
43804;BME280;29430;52.924;-2.388;2023-02-28T04:36:32;101103.44;;;4.26;100.00
43804;BME280;29430;52.924;-2.388;2023-02-28T04:41:24;101114.63;;;4.31;100.00
43804;BME280;29430;52.924;-2.388;2023-02-28T04:46:15;101114.19;;;4.36;100.00
43804;BME280;29430;52.924;-2.388;2023-02-28T04:51:09;101123.50;;;4.41;100.00
43804;BME280;29430;52.924;-2.388;2023-02-28T04:56:01;101108.53;;;4.39;100.00
43804;BME280;29430;52.924;-2.388;2023-02-28T05:00:54;101114.47;;;4.42;100.00
43804;BME280;29430;52.924;-2.388;2023-02-28T05:05:52;101125.63;;;4.38;100.00
43804;BME280;29430;52.924;-2.388;2023-02-28T05:10:44;101112.50;;;4.35;100.00
43804;BME280;29430;52.924;-2.388;2023-02-28T05:15:35;101117.72;;;4.36;100.00
43804;BME280;29430;52.924;-2.388;2023-02-28T05:20:27;101111.38;;;4.37;100.00
43804;BME280;29430;52.924;-2.388;2023-02-28T05:25:21;101111.38;;;4.37;100.00
43804;BME280;29430;52.924;-2.388;2023-02-28T05:30:16;101116.59;;;4.39;100.00
43804;BME280;29430;52.924;-2.388;2023-02-28T05:35:08;101114.19;;;4.36;100.00
43804;BME280;29430;52.924;-2.388;2023-02-28T05:40:00;101124.34;;;4.32;100.00
43804;BME280;29430;52.924;-2.388;2023-02-28T05:44:51;101132.28;;;4.34;100.00
43804;BME280;29430;52.924;-2.388;2023-02-28T05:49:43;101137.63;;;4.34;100.00
43804;BME280;29430;52.924;-2.388;2023-02-28T05:54:35;101135.97;;;4.33;100.00
43804;BME280;29430;52.924;-2.388;2023-02-28T05:59:26;101142.31;;;4.32;100.00
43804;BME280;29430;52.924;-2.388;2023-02-28T06:04:19;101139.78;;;4.30;100.00
43804;BME280;29430;52.924;-2.388;2023-02-28T06:09:22;101147.69;;;4.32;100.00
43804;BME280;29430;52.924;-2.388;2023-02-28T06:14:17;101142.47;;;4.30;100.00
43804;BME280;29430;52.924;-2.388;2023-02-28T06:19:09;101150.94;;;4.35;100.00
43804;BME280;29430;52.924;-2.388;2023-02-28T06:24:02;101146.72;;;4.33;100.00
43804;BME280;29430;52.924;-2.388;2023-02-28T06:28:54;101145.41;;;4.37;100.00
43804;BME280;29430;52.924;-2.388;2023-02-28T06:33:47;101144.59;;;4.36;100.00
43804;BME280;29430;52.924;-2.388;2023-02-28T06:38:39;101153.06;;;4.41;100.00
43804;BME280;29430;52.924;-2.388;2023-02-28T06:43:36;101149.66;;;4.39;100.00
43804;BME280;29430;52.924;-2.388;2023-02-28T06:48:28;101159.84;;;4.45;100.00
43804;BME280;29430;52.924;-2.388;2023-02-28T06:53:20;101168.47;;;4.49;100.00
43804;BME280;29430;52.924;-2.388;2023-02-28T06:58:12;101173.13;;;4.47;100.00
43804;BME280;29430;52.924;-2.388;2023-02-28T07:03:06;101166.34;;;4.43;100.00
43804;BME280;29430;52.924;-2.388;2023-02-28T07:07:58;101168.19;;;4.42;100.00
43804;BME280;29430;52.924;-2.388;2023-02-28T07:12:50;101185.44;;;4.50;100.00
43804;BME280;29430;52.924;-2.388;2023-02-28T07:17:43;101177.53;;;4.48;100.00
43804;BME280;29430;52.924;-2.388;2023-02-28T07:22:34;101177.25;;;4.51;100.00
43804;BME280;29430;52.924;-2.388;2023-02-28T07:27:26;101179.94;;;4.51;100.00
43804;BME280;29430;52.924;-2.388;2023-02-28T07:32:19;101181.47;;;4.54;100.00
43804;BME280;29430;52.924;-2.388;2023-02-28T07:37:12;101191.78;;;4.58;100.00
43804;BME280;29430;52.924;-2.388;2023-02-28T07:42:05;101194.63;;;4.57;100.00
43804;BME280;29430;52.924;-2.388;2023-02-28T07:46:59;101184.88;;;4.56;100.00
43804;BME280;29430;52.924;-2.388;2023-02-28T07:51:51;101195.50;;;4.57;100.00
43804;BME280;29430;52.924;-2.388;2023-02-28T07:56:42;101198.59;;;4.62;100.00
43804;BME280;29430;52.924;-2.388;2023-02-28T08:01:34;101204.66;;;4.64;100.00
43804;BME280;29430;52.924;-2.388;2023-02-28T08:06:26;101202.69;;;4.66;100.00
43804;BME280;29430;52.924;-2.388;2023-02-28T08:11:18;101207.78;;;4.70;100.00
43804;BME280;29430;52.924;-2.388;2023-02-28T08:16:10;101196.75;;;4.73;100.00
43804;BME280;29430;52.924;-2.388;2023-02-28T08:21:09;101203.66;;;4.75;100.00
43804;BME280;29430;52.924;-2.388;2023-02-28T08:26:02;101205.50;;;4.75;100.00
43804;BME280;29430;52.924;-2.388;2023-02-28T08:30:57;101199.16;;;4.76;100.00
43804;BME280;29430;52.924;-2.388;2023-02-28T08:35:52;101199.72;;;4.79;100.00
43804;BME280;29430;52.924;-2.388;2023-02-28T08:40:44;101202.25;;;4.81;100.00
43804;BME280;29430;52.924;-2.388;2023-02-28T08:45:36;101198.28;;;4.85;100.00
43804;BME280;29430;52.924;-2.388;2023-02-28T08:50:27;101198.28;;;4.85;100.00
43804;BME280;29430;52.924;-2.388;2023-02-28T08:55:19;101199.81;;;4.88;100.00
43804;BME280;29430;52.924;-2.388;2023-02-28T09:00:11;101207.47;;;4.92;100.00
43804;BME280;29430;52.924;-2.388;2023-02-28T09:05:05;101200.66;;;4.98;100.00
43804;BME280;29430;52.924;-2.388;2023-02-28T09:09:57;101199.25;;;5.04;100.00
43804;BME280;29430;52.924;-2.388;2023-02-28T09:14:51;101212.25;;;5.08;100.00
43804;BME280;29430;52.924;-2.388;2023-02-28T09:19:48;101206.75;;;5.10;100.00
43804;BME280;29430;52.924;-2.388;2023-02-28T09:24:39;101216.19;;;5.14;100.00
43804;BME280;29430;52.924;-2.388;2023-02-28T09:29:36;101217.06;;;5.14;100.00
43804;BME280;29430;52.924;-2.388;2023-02-28T09:34:28;101215.91;;;5.17;100.00
43804;BME280;29430;52.924;-2.388;2023-02-28T09:39:22;101211.50;;;5.26;100.00
43804;BME280;29430;52.924;-2.388;2023-02-28T09:44:25;101212.28;;;5.36;100.00
43804;BME280;29430;52.924;-2.388;2023-02-28T09:49:19;101210.03;;;5.41;100.00
43804;BME280;29430;52.924;-2.388;2023-02-28T09:54:30;101211.84;;;5.50;100.00
43804;BME280;29430;52.924;-2.388;2023-02-28T10:04:44;101215.09;;;5.82;100.00
43804;BME280;29430;52.924;-2.388;2023-02-28T10:09:46;101214.91;;;6.39;100.00
43804;BME280;29430;52.924;-2.388;2023-02-28T10:14:39;101218.69;;;7.08;100.00
43804;BME280;29430;52.924;-2.388;2023-02-28T10:24:46;101212.31;;;7.09;96.11
43804;BME280;29430;52.924;-2.388;2023-02-28T10:29:40;101208.38;;;7.04;96.41
43804;BME280;29430;52.924;-2.388;2023-02-28T10:34:33;101216.28;;;7.23;97.33
43804;BME280;29430;52.924;-2.388;2023-02-28T10:44:33;101213.72;;;7.48;90.66
43804;BME280;29430;52.924;-2.388;2023-02-28T10:49:27;101208.50;;;7.46;90.78
43804;BME280;29430;52.924;-2.388;2023-02-28T10:54:34;101218.06;;;7.41;89.35
43804;BME280;29430;52.924;-2.388;2023-02-28T10:59:30;101219.22;;;7.38;89.65
43804;BME280;29430;52.924;-2.388;2023-02-28T11:09:45;101219.63;;;7.43;90.79
43804;BME280;29430;52.924;-2.388;2023-02-28T11:14:51;101221.34;;;7.52;88.81
43804;BME280;29430;52.924;-2.388;2023-02-28T11:19:49;101213.41;;;7.51;86.89
43804;BME280;29430;52.924;-2.388;2023-02-28T11:24:45;101204.88;;;7.38;84.76
43804;BME280;29430;52.924;-2.388;2023-02-28T11:29:47;101203.09;;;7.46;86.71
43804;BME280;29430;52.924;-2.388;2023-02-28T11:34:40;101185.69;;;7.41;83.94
43804;BME280;29430;52.924;-2.388;2023-02-28T11:39:33;101182.19;;;7.57;84.90
43804;BME280;29430;52.924;-2.388;2023-02-28T12:00:08;101177.56;;;8.34;77.11
43804;BME280;29430;52.924;-2.388;2023-02-28T12:10:29;101168.34;;;8.02;78.03
43804;BME280;29430;52.924;-2.388;2023-02-28T12:20:51;101160.28;;;7.60;77.99
43804;BME280;29430;52.924;-2.388;2023-02-28T12:30:58;101151.34;;;7.59;76.22
43804;BME280;29430;52.924;-2.388;2023-02-28T12:35:59;101151.00;;;7.62;77.39
43804;BME280;29430;52.924;-2.388;2023-02-28T12:41:10;101137.19;;;7.65;75.25
43804;BME280;29430;52.924;-2.388;2023-02-28T12:46:17;101130.97;;;7.73;76.04
43804;BME280;29430;52.924;-2.388;2023-02-28T12:51:12;101132.19;;;7.79;75.11
43804;BME280;29430;52.924;-2.388;2023-02-28T12:56:13;101124.06;;;7.79;75.96
43804;BME280;29430;52.924;-2.388;2023-02-28T13:16:52;101097.34;;;7.59;76.22
43804;BME280;29430;52.924;-2.388;2023-02-28T13:21:47;101092.66;;;7.69;77.28
43804;BME280;29430;52.924;-2.388;2023-02-28T13:47:21;101077.94;;;7.72;74.15
43804;BME280;29430;52.924;-2.388;2023-02-28T13:52:20;101072.03;;;7.68;72.45
43804;BME280;29430;52.924;-2.388;2023-02-28T14:07:33;101072.94;;;7.85;73.61
43804;BME280;29430;52.924;-2.388;2023-02-28T14:12:57;101061.63;;;7.90;73.32
43804;BME280;29430;52.924;-2.388;2023-02-28T14:17:53;101066.69;;;7.85;73.09
43804;BME280;29430;52.924;-2.388;2023-02-28T14:28:37;101051.47;;;7.76;75.11
43804;BME280;29430;52.924;-2.388;2023-02-28T14:33:42;101046.25;;;7.74;75.69
43804;BME280;29430;52.924;-2.388;2023-02-28T14:38:45;101040.47;;;7.69;75.83
43804;BME280;29430;52.924;-2.388;2023-02-28T14:43:48;101040.81;;;7.66;77.75
43804;BME280;29430;52.924;-2.388;2023-02-28T14:48:40;101038.09;;;7.66;77.70
43804;BME280;29430;52.924;-2.388;2023-02-28T14:53:36;101051.78;;;7.64;78.40
43804;BME280;29430;52.924;-2.388;2023-02-28T14:58:33;101045.38;;;7.65;78.05
43804;BME280;29430;52.924;-2.388;2023-02-28T15:03:38;101038.78;;;7.60;78.63
43804;BME280;29430;52.924;-2.388;2023-02-28T15:08:32;101034.38;;;7.50;79.13
43804;BME280;29430;52.924;-2.388;2023-02-28T15:13:46;101027.78;;;7.45;79.72
43804;BME280;29430;52.924;-2.388;2023-02-28T15:18:50;101021.69;;;7.34;80.15
43804;BME280;29430;52.924;-2.388;2023-02-28T15:23:48;101030.09;;;7.23;80.35
43804;BME280;29430;52.924;-2.388;2023-02-28T15:28:42;101019.13;;;7.25;81.11
43804;BME280;29430;52.924;-2.388;2023-02-28T15:33:34;101033.78;;;7.30;81.91
43804;BME280;29430;52.924;-2.388;2023-02-28T15:38:27;101019.81;;;7.35;82.00
43804;BME280;29430;52.924;-2.388;2023-02-28T15:43:27;101019.63;;;7.28;81.67
43804;BME280;29430;52.924;-2.388;2023-02-28T15:48:23;101021.13;;;7.23;81.39
43804;BME280;29430;52.924;-2.388;2023-02-28T15:53:20;101024.47;;;7.16;80.67
43804;BME280;29430;52.924;-2.388;2023-02-28T15:58:21;101027.66;;;7.12;80.79
43804;BME280;29430;52.924;-2.388;2023-02-28T16:03:25;101029.00;;;7.08;80.53
43804;BME280;29430;52.924;-2.388;2023-02-28T16:08:17;101031.16;;;6.96;81.07
43804;BME280;29430;52.924;-2.388;2023-02-28T16:13:11;101032.78;;;6.89;82.41
43804;BME280;29430;52.924;-2.388;2023-02-28T16:18:08;101037.84;;;6.92;82.38
43804;BME280;29430;52.924;-2.388;2023-02-28T16:23:02;101041.59;;;6.91;82.52
43804;BME280;29430;52.924;-2.388;2023-02-28T16:27:55;101030.41;;;6.86;82.68
43804;BME280;29430;52.924;-2.388;2023-02-28T16:32:53;101034.13;;;6.85;83.46
43804;BME280;29430;52.924;-2.388;2023-02-28T16:37:45;101038.97;;;6.81;83.86
43804;BME280;29430;52.924;-2.388;2023-02-28T16:42:37;101031.91;;;6.80;84.14
43804;BME280;29430;52.924;-2.388;2023-02-28T16:47:29;101024.66;;;6.80;83.21
43804;BME280;29430;52.924;-2.388;2023-02-28T16:52:23;101021.97;;;6.80;83.42
43804;BME280;29430;52.924;-2.388;2023-02-28T16:57:19;101015.19;;;6.76;83.20
43804;BME280;29430;52.924;-2.388;2023-02-28T17:02:14;101020.44;;;6.78;83.89
43804;BME280;29430;52.924;-2.388;2023-02-28T17:07:11;101017.06;;;6.76;82.98
43804;BME280;29430;52.924;-2.388;2023-02-28T17:12:04;101016.75;;;6.79;83.41
43804;BME280;29430;52.924;-2.388;2023-02-28T17:16:56;101015.84;;;6.70;83.18
43804;BME280;29430;52.924;-2.388;2023-02-28T17:21:50;101014.31;;;6.68;83.17
43804;BME280;29430;52.924;-2.388;2023-02-28T17:26:42;101014.50;;;6.66;83.25
43804;BME280;29430;52.924;-2.388;2023-02-28T17:31:34;101010.75;;;6.67;83.54
43804;BME280;29430;52.924;-2.388;2023-02-28T17:36:31;101015.66;;;6.63;83.11
43804;BME280;29430;52.924;-2.388;2023-02-28T17:41:25;101022.19;;;6.61;84.01
43804;BME280;29430;52.924;-2.388;2023-02-28T17:46:20;101026.91;;;6.59;84.17
43804;BME280;29430;52.924;-2.388;2023-02-28T17:51:14;101041.53;;;6.56;83.94
43804;BME280;29430;52.924;-2.388;2023-02-28T17:56:32;101038.16;;;6.54;83.94
43804;BME280;29430;52.924;-2.388;2023-02-28T18:01:24;101044.72;;;6.52;84.45
43804;BME280;29430;52.924;-2.388;2023-02-28T18:06:23;101053.66;;;6.52;84.57
43804;BME280;29430;52.924;-2.388;2023-02-28T18:11:15;101052.13;;;6.50;84.67
43804;BME280;29430;52.924;-2.388;2023-02-28T18:16:10;101051.97;;;6.51;84.78
43804;BME280;29430;52.924;-2.388;2023-02-28T18:21:03;101058.50;;;6.49;85.19
43804;BME280;29430;52.924;-2.388;2023-02-28T18:25:56;101057.31;;;6.43;85.02
43804;BME280;29430;52.924;-2.388;2023-02-28T18:30:49;101064.84;;;6.39;85.65
43804;BME280;29430;52.924;-2.388;2023-02-28T18:35:41;101072.41;;;6.36;86.43
43804;BME280;29430;52.924;-2.388;2023-02-28T18:40:35;101074.25;;;6.35;86.88
43804;BME280;29430;52.924;-2.388;2023-02-28T18:45:27;101078.63;;;6.36;86.81
43804;BME280;29430;52.924;-2.388;2023-02-28T18:50:19;101085.03;;;6.35;87.09
43804;BME280;29430;52.924;-2.388;2023-02-28T18:55:11;101072.72;;;6.33;86.90
43804;BME280;29430;52.924;-2.388;2023-02-28T19:00:09;101071.00;;;6.32;87.27
43804;BME280;29430;52.924;-2.388;2023-02-28T19:05:01;101070.47;;;6.28;86.97
43804;BME280;29430;52.924;-2.388;2023-02-28T19:09:52;101076.19;;;6.25;87.45
43804;BME280;29430;52.924;-2.388;2023-02-28T19:14:44;101067.41;;;6.23;87.71
43804;BME280;29430;52.924;-2.388;2023-02-28T19:19:37;101061.16;;;6.22;87.86
43804;BME280;29430;52.924;-2.388;2023-02-28T19:24:28;101068.41;;;6.22;87.48
43804;BME280;29430;52.924;-2.388;2023-02-28T19:29:20;101070.28;;;6.21;87.61
43804;BME280;29430;52.924;-2.388;2023-02-28T19:34:12;101069.25;;;6.22;87.40
43804;BME280;29430;52.924;-2.388;2023-02-28T19:39:04;101064.88;;;6.21;87.73
43804;BME280;29430;52.924;-2.388;2023-02-28T19:43:56;101075.09;;;6.18;87.73
43804;BME280;29430;52.924;-2.388;2023-02-28T19:48:52;101083.66;;;6.13;88.16
43804;BME280;29430;52.924;-2.388;2023-02-28T19:53:44;101079.97;;;6.14;88.25
43804;BME280;29430;52.924;-2.388;2023-02-28T19:58:36;101074.50;;;6.06;88.07
43804;BME280;29430;52.924;-2.388;2023-02-28T20:03:28;101071.41;;;6.01;88.21
43804;BME280;29430;52.924;-2.388;2023-02-28T20:08:20;101085.59;;;6.03;86.89
43804;BME280;29430;52.924;-2.388;2023-02-28T20:13:12;101074.13;;;6.01;85.32
43804;BME280;29430;52.924;-2.388;2023-02-28T20:18:07;101077.38;;;6.04;86.01
43804;BME280;29430;52.924;-2.388;2023-02-28T20:22:58;101065.50;;;5.97;84.99
43804;BME280;29430;52.924;-2.388;2023-02-28T20:27:50;101080.94;;;5.95;85.32
43804;BME280;29430;52.924;-2.388;2023-02-28T20:32:42;101075.72;;;5.94;85.13
43804;BME280;29430;52.924;-2.388;2023-02-28T20:37:34;101087.31;;;5.94;85.43
43804;BME280;29430;52.924;-2.388;2023-02-28T20:42:25;101083.25;;;5.90;85.48
43804;BME280;29430;52.924;-2.388;2023-02-28T20:47:17;101071.63;;;5.89;85.52
43804;BME280;29430;52.924;-2.388;2023-02-28T20:52:09;101078.88;;;5.89;85.45
43804;BME280;29430;52.924;-2.388;2023-02-28T20:57:01;101070.78;;;5.89;85.71
43804;BME280;29430;52.924;-2.388;2023-02-28T21:01:53;101077.84;;;5.90;86.15
43804;BME280;29430;52.924;-2.388;2023-02-28T21:06:46;101078.41;;;5.94;85.92
43804;BME280;29430;52.924;-2.388;2023-02-28T21:11:40;101087.06;;;5.97;86.74
43804;BME280;29430;52.924;-2.388;2023-02-28T21:16:32;101083.22;;;6.00;86.99
43804;BME280;29430;52.924;-2.388;2023-02-28T21:21:27;101091.28;;;6.00;86.77
43804;BME280;29430;52.924;-2.388;2023-02-28T21:26:22;101089.75;;;5.97;87.74
43804;BME280;29430;52.924;-2.388;2023-02-28T21:31:15;101093.38;;;5.96;87.75
43804;BME280;29430;52.924;-2.388;2023-02-28T21:36:08;101098.25;;;5.92;89.41
43804;BME280;29430;52.924;-2.388;2023-02-28T21:41:08;101095.72;;;5.91;89.58
43804;BME280;29430;52.924;-2.388;2023-02-28T21:46:06;101108.50;;;5.89;89.54
43804;BME280;29430;52.924;-2.388;2023-02-28T21:51:00;101117.88;;;5.85;90.54
43804;BME280;29430;52.924;-2.388;2023-02-28T21:56:02;101115.78;;;5.79;90.42
43804;BME280;29430;52.924;-2.388;2023-02-28T22:01:07;101104.63;;;5.73;90.57
43804;BME280;29430;52.924;-2.388;2023-02-28T22:05:59;101108.00;;;5.76;89.53
43804;BME280;29430;52.924;-2.388;2023-02-28T22:10:50;101109.72;;;5.77;88.46
43804;BME280;29430;52.924;-2.388;2023-02-28T22:15:42;101112.56;;;5.75;88.07
43804;BME280;29430;52.924;-2.388;2023-02-28T22:20:34;101110.00;;;5.73;88.09
43804;BME280;29430;52.924;-2.388;2023-02-28T22:25:27;101100.69;;;5.68;86.58
43804;BME280;29430;52.924;-2.388;2023-02-28T22:30:19;101123.06;;;5.68;86.74
43804;BME280;29430;52.924;-2.388;2023-02-28T22:35:11;101116.16;;;5.66;86.47
43804;BME280;29430;52.924;-2.388;2023-02-28T22:40:05;101114.44;;;5.65;87.35
43804;BME280;29430;52.924;-2.388;2023-02-28T22:44:57;101105.84;;;5.61;87.15
43804;BME280;29430;52.924;-2.388;2023-02-28T22:49:49;101115.50;;;5.54;87.72
43804;BME280;29430;52.924;-2.388;2023-02-28T22:54:41;101117.50;;;5.52;88.41
43804;BME280;29430;52.924;-2.388;2023-02-28T22:59:33;101125.44;;;5.53;87.49
43804;BME280;29430;52.924;-2.388;2023-02-28T23:04:25;101131.50;;;5.55;87.71
43804;BME280;29430;52.924;-2.388;2023-02-28T23:09:18;101132.47;;;5.54;88.31
43804;BME280;29430;52.924;-2.388;2023-02-28T23:14:13;101126.13;;;5.55;87.74
43804;BME280;29430;52.924;-2.388;2023-02-28T23:19:09;101133.06;;;5.58;88.14
43804;BME280;29430;52.924;-2.388;2023-02-28T23:24:04;101135.75;;;5.58;87.38
43804;BME280;29430;52.924;-2.388;2023-02-28T23:28:56;101138.13;;;5.61;87.68
43804;BME280;29430;52.924;-2.388;2023-02-28T23:33:48;101130.75;;;5.63;87.79
43804;BME280;29430;52.924;-2.388;2023-02-28T23:38:41;101136.81;;;5.65;87.29
43804;BME280;29430;52.924;-2.388;2023-02-28T23:43:34;101127.91;;;5.65;86.77
43804;BME280;29430;52.924;-2.388;2023-02-28T23:48:26;101127.91;;;5.65;86.64
43804;BME280;29430;52.924;-2.388;2023-02-28T23:53:19;101118.56;;;5.59;86.85
43804;BME280;29430;52.924;-2.388;2023-02-28T23:58:10;101133.34;;;5.55;87.18
